createdAt,value
2019-02-25T00:05:36.361Z,68.39
2019-02-25T00:15:41.044Z,68.38
2019-02-25T00:25:45.721Z,69.41
2019-02-25T00:35:50.420Z,68.67
2019-02-25T00:45:55.105Z,70.80
2019-02-25T00:55:59.801Z,69.39
2019-02-25T01:06:05.099Z,69.43
2019-02-25T01:16:09.777Z,71.12
2019-02-25T01:26:14.470Z,71.67
2019-02-25T01:36:19.165Z,69.96
2019-02-25T01:46:23.841Z,69.06
2019-02-25T01:56:28.534Z,69.70
2019-02-25T02:06:33.209Z,70.05
2019-02-25T02:16:37.882Z,71.30
2019-02-25T02:26:42.589Z,71.52
2019-02-25T02:36:47.265Z,71.41
2019-02-25T02:47:07.216Z,71.65
2019-02-25T02:57:11.889Z,70.35
2019-02-25T03:07:17.202Z,70.41
2019-02-25T03:17:21.894Z,70.23
2019-02-25T03:27:26.581Z,69.70
2019-02-25T03:37:31.357Z,69.16
2019-02-25T03:47:36.053Z,67.33
2019-02-25T03:57:40.726Z,69.47
2019-02-25T04:07:45.503Z,69.86
2019-02-25T04:17:50.310Z,68.75
2019-02-25T04:27:54.994Z,69.55
2019-02-25T04:37:59.691Z,69.63
2019-02-25T04:48:05.109Z,70.96
2019-02-25T04:58:09.886Z,67.37
2019-02-25T05:08:14.638Z,68.64
2019-02-25T05:18:19.362Z,68.67
2019-02-25T05:28:24.032Z,68.05
2019-02-25T05:38:28.936Z,68.17
2019-02-25T05:48:33.620Z,67.96
2019-02-25T05:58:38.529Z,67.37
2019-02-25T06:08:43.203Z,68.86
2019-02-25T06:18:47.889Z,67.43
2019-02-25T06:28:52.566Z,65.90
2019-02-25T06:38:57.252Z,64.54
2019-02-25T06:49:01.935Z,63.27
2019-02-25T06:59:06.657Z,61.45
2019-02-25T07:09:12.953Z,56.94
2019-02-25T07:19:19.175Z,57.42
2019-02-25T07:29:40.655Z,55.73
2019-02-25T07:39:47.179Z,53.37
2019-02-25T07:50:05.694Z,51.54
2019-02-25T08:00:13.136Z,51.08
2019-02-25T08:10:25.514Z,48.93
2019-02-25T08:20:31.993Z,48.79
2019-02-25T08:30:56.601Z,50.52
2019-02-25T08:41:21.594Z,48.50
2019-02-25T08:51:26.316Z,47.17
2019-02-25T09:01:31.030Z,44.78
2019-02-25T09:11:35.825Z,46.49
2019-02-25T09:21:40.703Z,48.14
2019-02-25T09:31:46.433Z,48.43
2019-02-25T09:41:51.109Z,48.10
2019-02-25T09:51:55.797Z,47.48
2019-02-25T10:02:00.679Z,45.11
2019-02-25T10:12:05.468Z,44.10
2019-02-25T10:22:10.357Z,42.12
2019-02-25T10:32:15.059Z,41.88
2019-02-25T10:42:19.738Z,38.25
2019-02-25T10:52:24.419Z,40.08
2019-02-25T11:02:29.109Z,39.52
2019-02-25T11:12:33.788Z,36.53
2019-02-25T11:22:39.906Z,38.49
2019-02-25T11:32:45.059Z,40.15
2019-02-25T11:42:49.817Z,40.80
2019-02-25T11:52:54.481Z,41.79
2019-02-25T12:02:59.161Z,44.79
2019-02-25T12:13:05.286Z,42.91
2019-02-25T12:23:10.702Z,42.47
2019-02-25T12:33:16.556Z,45.16
2019-02-25T12:43:21.833Z,44.24
2019-02-25T12:53:26.968Z,45.06
2019-02-25T13:03:32.699Z,46.10
2019-02-25T13:13:37.710Z,47.92
2019-02-25T13:23:44.042Z,48.56
2019-02-25T13:33:49.660Z,49.76
2019-02-25T13:43:58.932Z,51.51
2019-02-25T13:54:10.083Z,52.50
2019-02-25T14:04:15.247Z,52.36
2019-02-25T14:14:20.844Z,49.71
2019-02-25T14:24:26.131Z,51.64
2019-02-25T14:45:21.631Z,56.39
2019-02-25T14:55:25.709Z,55.17
2019-02-25T15:05:30.997Z,56.14
2019-02-25T15:15:37.479Z,58.63
2019-02-25T15:25:45.473Z,60.32
2019-02-25T15:35:51.799Z,61.48
2019-02-25T15:45:58.550Z,61.95
2019-02-25T15:56:05.451Z,62.94
2019-02-25T16:06:11.362Z,64.81
2019-02-25T16:16:17.238Z,66.40
2019-02-25T16:26:22.885Z,66.76
2019-02-25T16:36:30.534Z,67.79
2019-02-25T16:46:38.551Z,69.55
2019-02-25T16:56:42.793Z,71.39
2019-02-25T17:06:49.151Z,72.61
2019-02-25T17:16:57.032Z,73.64
2019-02-25T17:27:04.630Z,73.43
2019-02-25T17:37:10.771Z,74.62
2019-02-25T17:47:24.030Z,74.12
2019-02-25T17:57:25.685Z,75.01
2019-02-25T18:07:31.696Z,75.36
2019-02-25T18:17:38.903Z,76.73
2019-02-25T18:27:49.708Z,75.92
2019-02-25T18:37:53.066Z,76.53
2019-02-25T18:47:58.978Z,77.72
2019-02-25T18:58:07.898Z,77.38
2019-02-25T19:08:20.257Z,77.23
2019-02-25T19:18:26.424Z,77.47
2019-02-25T19:28:32.786Z,78.44
2019-02-25T19:38:41.928Z,78.78
2019-02-25T19:48:47.988Z,78.67
2019-02-25T19:58:53.345Z,79.53
2019-02-25T20:09:00.426Z,78.95
2019-02-25T20:19:08.797Z,78.73
2019-02-25T20:29:14.542Z,79.76
2019-02-25T20:39:20.533Z,79.89
2019-02-25T20:49:29.458Z,80.22
2019-02-25T20:59:34.865Z,78.27
2019-02-25T21:09:42.269Z,76.11
2019-02-25T21:19:47.617Z,72.35
2019-02-25T21:29:56.543Z,71.32
2019-02-25T21:40:02.909Z,71.10
2019-02-25T21:50:12.123Z,69.13
2019-02-25T22:00:24.539Z,72.54
2019-02-25T22:10:29.994Z,73.27
2019-02-25T22:20:37.657Z,72.63
2019-02-25T22:30:42.929Z,74.81
2019-02-25T22:40:50.980Z,74.69
2019-02-25T22:50:57.729Z,75.41
2019-02-25T23:01:05.478Z,75.63
2019-02-25T23:11:14.448Z,76.75
2019-02-25T23:21:23.751Z,77.04
2019-02-25T23:31:29.782Z,77.50
2019-02-25T23:41:36.252Z,77.81
2019-02-25T23:51:41.582Z,77.54
